createdAt,value
2022-12-19T00:01:32.583Z,0.54
2022-12-19T00:04:01.320Z,0.46
2022-12-19T00:06:29.319Z,0.82
2022-12-19T00:08:58.765Z,0.90
2022-12-19T00:11:26.543Z,1.29
2022-12-19T00:13:53.106Z,1.22
2022-12-19T00:16:22.968Z,1.30
2022-12-19T00:18:51.040Z,0.96
2022-12-19T00:21:23.854Z,0.79
2022-12-19T00:23:51.040Z,0.38
2022-12-19T00:26:24.741Z,0.62
2022-12-19T00:28:54.319Z,0.30
2022-12-19T00:31:22.333Z,-0.02
2022-12-19T00:33:49.517Z,0.21
2022-12-19T00:36:23.114Z,0.03
2022-12-19T00:38:51.669Z,0.28
2022-12-19T00:41:21.670Z,0.89
2022-12-19T00:43:52.469Z,0.14
2022-12-19T00:46:19.025Z,-0.36
2022-12-19T00:48:45.540Z,0.06
2022-12-19T00:51:17.453Z,0.37
2022-12-19T00:53:45.545Z,0.41
2022-12-19T00:56:19.023Z,0.21
2022-12-19T00:58:47.411Z,0.44
2022-12-19T01:01:20.716Z,0.95
2022-12-19T01:04:11.286Z,0.82
2022-12-19T01:06:34.726Z,0.98
2022-12-19T01:09:01.455Z,0.59
2022-12-19T01:11:46.790Z,0.43
2022-12-19T01:14:20.728Z,0.66
2022-12-19T01:16:49.118Z,0.99
2022-12-19T01:19:15.754Z,0.82
2022-12-19T01:21:42.311Z,1.08
2022-12-19T01:24:09.484Z,1.19
2022-12-19T01:26:35.997Z,0.86
2022-12-19T01:29:02.540Z,0.88
2022-12-19T01:31:29.136Z,1.11
2022-12-19T01:33:55.633Z,1.13
2022-12-19T01:36:22.144Z,1.05
2022-12-19T01:38:48.743Z,1.01
2022-12-19T01:41:15.264Z,0.79
2022-12-19T01:43:55.655Z,1.15
2022-12-19T01:46:27.723Z,0.74
2022-12-19T01:48:56.516Z,0.99
2022-12-19T01:51:25.488Z,1.38
2022-12-19T01:53:57.598Z,1.02
2022-12-19T01:56:34.274Z,0.83
2022-12-19T01:59:07.068Z,1.16
2022-12-19T02:01:35.081Z,1.03
2022-12-19T02:04:03.429Z,0.99
2022-12-19T02:06:31.673Z,1.10
2022-12-19T02:08:58.260Z,1.54
2022-12-19T02:11:24.773Z,1.52
2022-12-19T02:13:51.377Z,1.37
2022-12-19T02:16:24.272Z,1.05
2022-12-19T02:19:00.300Z,1.08
2022-12-19T02:21:45.304Z,0.65
2022-12-19T02:24:55.393Z,1.04
2022-12-19T02:27:51.932Z,0.99
2022-12-19T02:30:53.399Z,1.38
2022-12-19T02:33:24.987Z,0.78
2022-12-19T02:35:54.691Z,0.94
2022-12-19T02:38:48.167Z,1.18
2022-12-19T02:41:30.614Z,0.68
2022-12-19T02:43:58.967Z,0.72
2022-12-19T02:46:28.250Z,0.51
2022-12-19T02:48:55.307Z,0.90
2022-12-19T02:51:21.844Z,0.27
2022-12-19T02:53:48.443Z,0.78
2022-12-19T02:56:25.633Z,0.90
2022-12-19T02:59:09.565Z,0.63
2022-12-19T03:01:45.673Z,0.85
2022-12-19T03:04:21.149Z,0.63
2022-12-19T03:07:04.070Z,0.85
2022-12-19T03:09:48.392Z,0.73
2022-12-19T03:12:23.694Z,0.63
2022-12-19T03:14:52.074Z,0.51
2022-12-19T03:17:18.660Z,0.40
2022-12-19T03:19:46.082Z,0.76
2022-12-19T03:22:12.910Z,0.98
2022-12-19T03:24:39.869Z,0.89
2022-12-19T03:27:12.695Z,0.61
2022-12-19T03:29:50.046Z,0.77
2022-12-19T03:32:18.289Z,1.19
2022-12-19T03:34:52.288Z,1.01
2022-12-19T03:37:22.235Z,0.87
2022-12-19T03:39:52.650Z,0.53
2022-12-19T03:42:39.522Z,1.09
2022-12-19T03:45:07.247Z,1.43
2022-12-19T03:47:42.064Z,0.83
2022-12-19T03:50:10.465Z,1.23
2022-12-19T03:52:46.239Z,1.48
2022-12-19T03:55:19.309Z,1.16
2022-12-19T03:57:58.094Z,1.33
2022-12-19T04:00:25.588Z,1.67
2022-12-19T04:02:55.764Z,1.24
2022-12-19T04:05:24.867Z,1.51
2022-12-19T04:07:55.384Z,1.30
2022-12-19T04:10:24.704Z,1.60
2022-12-19T04:12:56.958Z,1.11
2022-12-19T04:15:34.827Z,1.19
2022-12-19T04:18:04.972Z,1.44
2022-12-19T04:20:33.655Z,1.72
2022-12-19T04:23:06.648Z,1.17
2022-12-19T04:25:37.763Z,0.73
2022-12-19T04:28:09.541Z,1.12
2022-12-19T04:30:38.292Z,0.86
2022-12-19T04:33:05.044Z,1.51
2022-12-19T04:35:31.635Z,1.17
2022-12-19T04:37:58.221Z,1.21
2022-12-19T04:40:24.740Z,1.77
2022-12-19T04:42:51.338Z,1.55
2022-12-19T04:45:18.016Z,1.10
2022-12-19T04:47:46.053Z,1.60
2022-12-19T04:50:12.512Z,1.68
2022-12-19T04:52:39.094Z,1.89
2022-12-19T04:55:06.186Z,1.98
2022-12-19T04:57:32.740Z,1.42
2022-12-19T04:59:59.302Z,1.53
2022-12-19T05:02:26.083Z,1.81
2022-12-19T05:04:52.700Z,1.85
2022-12-19T05:07:19.218Z,1.81
2022-12-19T05:09:45.739Z,1.86
2022-12-19T05:12:12.268Z,1.70
2022-12-19T05:14:38.848Z,1.52
2022-12-19T05:17:05.334Z,1.21
2022-12-19T05:19:31.805Z,1.60
2022-12-19T05:21:58.906Z,1.69
2022-12-19T05:24:25.440Z,1.72
2022-12-19T05:26:51.948Z,1.77
2022-12-19T05:29:18.527Z,1.99
2022-12-19T05:31:45.104Z,2.17
2022-12-19T05:34:11.767Z,1.62
2022-12-19T05:36:38.628Z,1.62
2022-12-19T05:39:05.296Z,1.77
2022-12-19T05:41:31.926Z,2.20
2022-12-19T05:43:58.430Z,1.76
2022-12-19T05:46:25.483Z,2.21
2022-12-19T05:48:52.021Z,1.50
2022-12-19T05:51:18.967Z,1.70
2022-12-19T05:53:45.552Z,1.80
2022-12-19T05:56:15.189Z,1.70
2022-12-19T05:58:42.616Z,1.58
2022-12-19T06:01:15.850Z,1.86
2022-12-19T06:03:42.402Z,1.96
2022-12-19T06:06:11.733Z,1.79
2022-12-19T06:08:38.807Z,2.05
2022-12-19T06:11:07.825Z,1.95
2022-12-19T06:13:35.518Z,1.89
2022-12-19T06:16:12.949Z,1.87
2022-12-19T06:18:44.447Z,1.31
2022-12-19T06:21:23.298Z,1.43
2022-12-19T06:23:50.347Z,1.88
2022-12-19T06:26:20.193Z,1.79
2022-12-19T06:28:52.085Z,2.13
2022-12-19T06:31:20.880Z,2.41
2022-12-19T06:33:47.643Z,1.71
2022-12-19T06:36:20.713Z,2.15
2022-12-19T06:38:48.078Z,2.26
2022-12-19T06:41:33.710Z,2.15
2022-12-19T06:44:01.355Z,2.76
2022-12-19T06:46:28.642Z,2.86
2022-12-19T06:48:55.179Z,2.82
2022-12-19T06:51:22.408Z,2.08
2022-12-19T06:53:49.093Z,2.48
2022-12-19T06:56:16.520Z,2.38
2022-12-19T06:58:43.136Z,1.84
2022-12-19T07:01:18.173Z,2.16
2022-12-19T07:03:46.667Z,2.15
2022-12-19T07:06:13.450Z,2.54
2022-12-19T07:08:39.967Z,2.76
2022-12-19T07:11:06.582Z,2.55
2022-12-19T07:13:33.107Z,2.33
2022-12-19T07:16:02.186Z,2.80
2022-12-19T07:18:31.841Z,2.52
2022-12-19T07:20:58.381Z,2.80
2022-12-19T07:23:24.958Z,2.53
2022-12-19T07:25:51.513Z,2.64
2022-12-19T07:28:18.460Z,2.92
2022-12-19T07:30:45.145Z,2.67
2022-12-19T07:33:13.602Z,3.02
2022-12-19T07:35:43.485Z,3.18
2022-12-19T07:38:10.034Z,3.30
2022-12-19T07:40:36.547Z,3.35
2022-12-19T07:43:05.569Z,3.42
2022-12-19T07:45:33.213Z,2.81
2022-12-19T07:48:01.387Z,2.91
2022-12-19T07:50:28.944Z,2.75
2022-12-19T07:52:55.734Z,2.56
2022-12-19T07:55:22.285Z,2.85
2022-12-19T07:57:48.913Z,3.10
2022-12-19T08:00:15.705Z,2.90
2022-12-19T08:02:43.080Z,3.01
2022-12-19T08:05:11.409Z,2.97
2022-12-19T08:07:37.943Z,3.01
2022-12-19T08:10:06.630Z,3.25
2022-12-19T08:12:33.893Z,3.15
2022-12-19T08:15:00.450Z,3.01
2022-12-19T08:17:27.013Z,2.98
2022-12-19T08:19:53.609Z,2.98
2022-12-19T08:22:20.259Z,2.84
2022-12-19T08:24:46.862Z,2.98
2022-12-19T08:27:13.344Z,3.08
2022-12-19T08:29:39.905Z,3.15
2022-12-19T08:32:06.428Z,3.18
2022-12-19T08:34:32.940Z,3.31
2022-12-19T08:36:59.526Z,3.36
2022-12-19T08:39:26.061Z,3.46
2022-12-19T08:41:52.544Z,3.59
2022-12-19T08:44:19.127Z,3.36
2022-12-19T08:46:49.933Z,3.45
2022-12-19T08:49:17.457Z,3.45
2022-12-19T08:51:44.004Z,3.49
2022-12-19T08:54:12.160Z,3.64
2022-12-19T08:56:45.319Z,3.63
2022-12-19T08:59:19.322Z,3.44
2022-12-19T09:01:57.497Z,3.67
2022-12-19T09:06:00.115Z,3.86
2022-12-19T09:07:10.995Z,3.72
2022-12-19T09:09:37.510Z,3.76
2022-12-19T09:12:04.026Z,3.72
2022-12-19T09:14:34.934Z,3.70
2022-12-19T09:17:01.628Z,3.68
2022-12-19T09:19:30.460Z,3.52
2022-12-19T09:21:56.950Z,3.42
2022-12-19T09:24:24.794Z,3.43
2022-12-19T09:26:57.397Z,3.54
2022-12-19T09:29:32.211Z,3.58
2022-12-19T09:32:04.634Z,3.78
2022-12-19T09:34:37.970Z,3.59
2022-12-19T09:37:15.940Z,3.52
2022-12-19T09:39:46.152Z,3.83
2022-12-19T09:42:21.454Z,3.99
2022-12-19T09:45:18.818Z,4.06
2022-12-19T09:47:59.087Z,4.05
2022-12-19T09:50:58.604Z,3.95
2022-12-19T09:54:01.453Z,3.79
2022-12-19T09:56:40.203Z,3.83
2022-12-19T09:59:22.606Z,3.63
2022-12-19T10:02:04.222Z,3.95
2022-12-19T10:04:36.099Z,4.01
2022-12-19T10:07:18.676Z,3.90
2022-12-19T10:11:38.652Z,3.84
2022-12-19T10:13:04.941Z,3.53
2022-12-19T10:15:59.025Z,3.98
2022-12-19T10:18:56.045Z,4.11
2022-12-19T10:21:58.968Z,4.12
2022-12-19T10:24:41.201Z,4.24
2022-12-19T10:27:31.338Z,4.18
2022-12-19T10:30:22.416Z,3.97
2022-12-19T10:33:20.157Z,4.02
2022-12-19T10:35:54.331Z,4.23
2022-12-19T10:38:52.192Z,3.84
2022-12-19T10:41:28.734Z,3.87
2022-12-19T10:43:58.937Z,3.88
2022-12-19T10:46:38.080Z,3.83
2022-12-19T10:49:19.231Z,3.46
2022-12-19T10:52:03.981Z,3.80
2022-12-19T10:54:43.549Z,4.11
2022-12-19T10:57:26.348Z,4.19
2022-12-19T11:00:06.283Z,4.40
2022-12-19T11:02:40.084Z,4.46
2022-12-19T11:05:28.883Z,4.59
2022-12-19T11:08:03.890Z,4.65
2022-12-19T11:11:47.776Z,4.40
2022-12-19T11:17:19.982Z,4.00
2022-12-19T11:23:14.463Z,4.17
2022-12-19T11:29:42.002Z,4.59
2022-12-19T11:30:09.322Z,4.87
2022-12-19T11:30:42.985Z,5.01
2022-12-19T11:30:44.125Z,5.04
2022-12-19T11:34:07.218Z,4.79
2022-12-19T11:37:14.401Z,4.70
2022-12-19T11:40:18.913Z,5.02
2022-12-19T11:43:43.242Z,4.76
2022-12-19T11:46:04.410Z,4.38
2022-12-19T11:48:39.952Z,4.60
2022-12-19T11:51:17.303Z,4.75
2022-12-19T11:54:13.964Z,4.35
2022-12-19T11:56:40.469Z,4.55
2022-12-19T11:59:18.547Z,4.84
2022-12-19T12:02:06.714Z,4.78
2022-12-19T12:05:07.878Z,4.79
2022-12-19T12:09:15.692Z,4.64
2022-12-19T12:15:56.913Z,4.71
2022-12-19T12:22:34.770Z,4.80
2022-12-19T12:29:39.809Z,4.79
2022-12-19T12:31:14.478Z,4.56
2022-12-19T12:31:23.448Z,4.99
2022-12-19T12:31:52.923Z,4.93
2022-12-19T12:32:06.316Z,4.76
2022-12-19T12:35:40.781Z,4.77
2022-12-19T12:40:47.801Z,4.59
2022-12-19T12:43:38.803Z,4.59
2022-12-19T12:46:13.467Z,4.78
2022-12-19T12:49:05.481Z,4.94
2022-12-19T12:51:33.942Z,4.89
2022-12-19T12:54:07.724Z,5.01
2022-12-19T12:56:36.422Z,5.06
2022-12-19T12:59:19.181Z,4.85
2022-12-19T13:01:50.822Z,4.78
2022-12-19T13:04:40.126Z,5.05
2022-12-19T13:07:19.555Z,5.13
2022-12-19T13:09:53.460Z,5.09
2022-12-19T13:12:55.377Z,5.05
2022-12-19T13:15:21.968Z,5.01
2022-12-19T13:17:48.940Z,5.08
2022-12-19T13:20:18.754Z,5.17
2022-12-19T13:23:02.728Z,5.34
2022-12-19T13:25:32.400Z,5.28
2022-12-19T13:28:15.519Z,5.41
2022-12-19T13:31:21.228Z,5.39
2022-12-19T13:33:51.548Z,5.55
2022-12-19T13:39:54.905Z,5.54
2022-12-19T13:40:07.493Z,5.16
2022-12-19T13:43:10.019Z,5.64
2022-12-19T13:45:40.482Z,5.19
2022-12-19T13:48:16.081Z,5.51
2022-12-19T13:50:47.602Z,5.54
2022-12-19T13:53:22.877Z,5.58
2022-12-19T13:55:49.516Z,5.71
2022-12-19T13:58:29.754Z,5.51
2022-12-19T14:01:02.423Z,5.49
2022-12-19T14:03:41.992Z,4.93
2022-12-19T14:06:19.997Z,4.76
2022-12-19T14:10:19.956Z,5.02
2022-12-19T14:12:18.290Z,5.22
2022-12-19T14:14:49.267Z,5.38
2022-12-19T14:17:35.793Z,5.12
2022-12-19T14:22:06.789Z,5.19
2022-12-19T14:23:04.862Z,5.34
2022-12-19T14:28:15.282Z,5.43
2022-12-19T14:28:50.682Z,5.23
2022-12-19T14:31:22.115Z,5.08
2022-12-19T14:34:11.622Z,5.33
2022-12-19T14:36:39.913Z,5.15
2022-12-19T14:39:25.330Z,5.07
2022-12-19T14:42:13.786Z,5.22
2022-12-19T14:52:34.837Z,5.15
2022-12-19T14:54:03.751Z,5.09
2022-12-19T14:54:16.796Z,5.00
2022-12-19T14:54:31.034Z,5.12
2022-12-19T14:59:00.808Z,5.10
2022-12-19T15:01:31.026Z,5.15
2022-12-19T15:04:52.259Z,5.01
2022-12-19T15:07:07.550Z,5.12
2022-12-19T15:11:00.784Z,5.15
2022-12-19T15:14:46.967Z,5.10
2022-12-19T15:16:03.995Z,5.00
2022-12-19T15:18:36.345Z,4.84
2022-12-19T15:21:14.615Z,4.77
2022-12-19T15:23:45.144Z,4.74
2022-12-19T15:26:14.879Z,4.74
2022-12-19T15:28:47.359Z,4.73
2022-12-19T15:31:38.894Z,4.65
2022-12-19T15:34:44.354Z,4.66
2022-12-19T15:37:16.472Z,4.46
2022-12-19T15:39:44.248Z,4.40
2022-12-19T15:42:20.104Z,4.42
2022-12-19T15:44:48.192Z,4.46
2022-12-19T15:47:26.016Z,4.43
2022-12-19T15:49:52.520Z,4.34
2022-12-19T15:52:20.731Z,4.31
2022-12-19T15:54:50.311Z,4.25
2022-12-19T15:57:38.824Z,4.71
2022-12-19T16:00:16.801Z,4.78
2022-12-19T16:03:21.259Z,4.60
2022-12-19T16:05:29.948Z,4.61
2022-12-19T16:07:59.386Z,4.56
2022-12-19T16:10:26.625Z,4.31
2022-12-19T16:12:55.561Z,4.33
2022-12-19T16:15:33.602Z,4.35
2022-12-19T16:18:03.050Z,4.24
2022-12-19T16:20:39.459Z,4.37
2022-12-19T16:23:07.146Z,4.27
2022-12-19T16:25:45.785Z,4.30
2022-12-19T16:28:21.949Z,4.20
2022-12-19T16:30:50.294Z,4.33
2022-12-19T16:33:35.005Z,4.32
2022-12-19T16:36:04.529Z,4.28
2022-12-19T16:38:33.242Z,4.29
2022-12-19T16:41:01.466Z,4.24
2022-12-19T16:43:31.938Z,4.24
2022-12-19T16:46:01.518Z,4.25
2022-12-19T16:48:32.243Z,4.23
2022-12-19T16:50:59.266Z,4.20
2022-12-19T16:53:26.181Z,4.17
2022-12-19T16:55:54.513Z,4.10
2022-12-19T16:58:24.444Z,4.13
2022-12-19T17:00:54.720Z,4.05
2022-12-19T17:03:33.489Z,4.04
2022-12-19T17:06:00.549Z,3.97
2022-12-19T17:08:27.197Z,3.94
2022-12-19T17:10:54.428Z,3.98
2022-12-19T17:13:22.239Z,3.96
2022-12-19T17:15:55.986Z,3.77
2022-12-19T17:18:35.539Z,3.85
2022-12-19T17:21:02.091Z,3.83
2022-12-19T17:23:30.502Z,3.79
2022-12-19T17:25:57.935Z,3.86
2022-12-19T17:28:24.459Z,3.90
2022-12-19T17:30:53.345Z,3.80
2022-12-19T17:33:28.337Z,3.89
2022-12-19T17:35:54.840Z,3.92
2022-12-19T17:38:21.448Z,4.02
2022-12-19T17:40:48.020Z,3.95
2022-12-19T17:43:14.524Z,3.88
2022-12-19T17:45:41.686Z,4.00
2022-12-19T17:48:36.196Z,4.06
2022-12-19T17:51:02.926Z,4.20
2022-12-19T17:53:29.517Z,4.21
2022-12-19T17:55:55.999Z,4.21
2022-12-19T17:58:22.591Z,4.22
2022-12-19T18:00:49.801Z,3.92
2022-12-19T18:03:26.602Z,4.07
2022-12-19T18:05:58.024Z,4.07
2022-12-19T18:08:30.199Z,3.91
2022-12-19T18:10:59.496Z,4.04
2022-12-19T18:13:27.238Z,4.05
2022-12-19T18:15:57.320Z,4.05
2022-12-19T18:18:28.920Z,4.03
2022-12-19T18:20:55.647Z,3.94
2022-12-19T18:23:23.497Z,3.77
2022-12-19T18:25:53.565Z,3.71
2022-12-19T18:28:24.319Z,3.82
2022-12-19T18:30:52.446Z,3.91
2022-12-19T18:33:23.940Z,3.96
2022-12-19T18:35:51.413Z,4.00
2022-12-19T18:38:21.342Z,3.96
2022-12-19T18:40:49.339Z,3.97
2022-12-19T18:43:16.970Z,3.91
2022-12-19T18:45:50.922Z,3.89
2022-12-19T18:48:26.804Z,3.79
2022-12-19T18:50:55.186Z,3.76
2022-12-19T18:53:27.396Z,3.49
2022-12-19T18:55:56.346Z,3.40
2022-12-19T18:58:22.880Z,3.67
2022-12-19T19:00:52.998Z,3.70
2022-12-19T19:03:26.554Z,3.70
2022-12-19T19:05:54.455Z,3.72
2022-12-19T19:08:24.658Z,3.66
2022-12-19T19:10:52.538Z,3.70
2022-12-19T19:13:21.013Z,3.64
2022-12-19T19:15:50.899Z,3.61
2022-12-19T19:18:22.136Z,3.77
2022-12-19T19:20:57.150Z,3.81
2022-12-19T19:23:30.577Z,4.05
2022-12-19T19:25:57.206Z,4.00
2022-12-19T19:28:23.701Z,4.05
2022-12-19T19:30:51.601Z,4.09
2022-12-19T19:33:24.879Z,4.09
2022-12-19T19:35:55.761Z,4.14
2022-12-19T19:38:23.485Z,4.10
2022-12-19T19:40:50.747Z,4.13
2022-12-19T19:43:17.268Z,4.19
2022-12-19T19:45:44.044Z,4.16
2022-12-19T19:48:10.847Z,4.19
2022-12-19T19:50:38.139Z,4.23
2022-12-19T19:53:04.803Z,4.18
2022-12-19T19:55:31.400Z,4.03
2022-12-19T19:57:58.026Z,4.07
2022-12-19T20:00:24.853Z,4.04
2022-12-19T20:02:51.554Z,3.98
2022-12-19T20:05:18.512Z,4.04
2022-12-19T20:07:45.115Z,3.71
2022-12-19T20:10:12.313Z,3.67
2022-12-19T20:12:39.529Z,3.73
2022-12-19T20:15:06.666Z,3.80
2022-12-19T20:17:33.195Z,3.83
2022-12-19T20:20:00.122Z,3.88
2022-12-19T20:22:26.666Z,3.82
2022-12-19T20:24:53.903Z,3.98
2022-12-19T20:27:20.590Z,4.08
2022-12-19T20:29:47.133Z,3.79
2022-12-19T20:32:14.970Z,3.88
2022-12-19T20:34:41.520Z,4.10
2022-12-19T20:37:08.031Z,4.13
2022-12-19T20:39:34.730Z,4.19
2022-12-19T20:42:01.440Z,4.16
2022-12-19T20:44:28.123Z,4.07
2022-12-19T20:46:54.791Z,3.99
2022-12-19T20:49:23.116Z,3.91
2022-12-19T20:51:49.642Z,4.07
2022-12-19T20:54:16.447Z,4.22
2022-12-19T20:56:43.075Z,4.50
2022-12-19T20:59:10.276Z,4.73
2022-12-19T21:01:38.133Z,4.87
2022-12-19T21:04:05.199Z,4.90
2022-12-19T21:06:32.277Z,4.86
2022-12-19T21:08:58.866Z,4.92
2022-12-19T21:11:27.506Z,5.03
2022-12-19T21:13:54.347Z,5.10
2022-12-19T21:16:22.704Z,5.17
2022-12-19T21:18:50.964Z,5.08
2022-12-19T21:21:21.785Z,5.14
2022-12-19T21:23:48.533Z,4.96
2022-12-19T21:26:15.292Z,4.97
2022-12-19T21:28:42.476Z,5.13
2022-12-19T21:31:15.101Z,5.19
2022-12-19T21:33:42.083Z,4.98
2022-12-19T21:36:11.488Z,5.17
2022-12-19T21:38:38.373Z,5.22
2022-12-19T21:41:06.934Z,5.12
2022-12-19T21:43:35.213Z,5.04
2022-12-19T21:46:11.692Z,4.92
2022-12-19T21:48:39.879Z,4.75
2022-12-19T21:51:07.571Z,4.86
2022-12-19T21:53:35.404Z,4.91
2022-12-19T21:56:26.510Z,4.99
2022-12-19T21:58:56.375Z,5.02
2022-12-19T22:01:23.899Z,5.10
2022-12-19T22:03:51.461Z,5.15
2022-12-19T22:06:27.359Z,5.17
2022-12-19T22:08:55.793Z,5.02
2022-12-19T22:11:22.865Z,5.02
2022-12-19T22:13:49.890Z,4.91
2022-12-19T22:16:17.123Z,5.11
2022-12-19T22:18:44.330Z,5.07
2022-12-19T22:21:13.229Z,5.08
2022-12-19T22:23:39.860Z,5.47
2022-12-19T22:26:14.725Z,5.53
2022-12-19T22:28:44.603Z,5.49
2022-12-19T22:31:26.064Z,5.39
2022-12-19T22:33:55.030Z,5.40
2022-12-19T22:36:28.019Z,5.27
2022-12-19T22:38:56.471Z,5.35
2022-12-19T22:41:23.423Z,5.30
2022-12-19T22:43:50.162Z,5.24
2022-12-19T22:46:20.172Z,5.02
2022-12-19T22:48:48.158Z,5.31
2022-12-19T22:51:16.013Z,5.38
2022-12-19T22:53:43.484Z,5.30
2022-12-19T22:56:18.530Z,5.13
2022-12-19T22:58:47.583Z,5.28
2022-12-19T23:01:28.594Z,5.38
2022-12-19T23:03:56.872Z,5.28
2022-12-19T23:06:25.467Z,5.39
2022-12-19T23:08:52.483Z,5.41
2022-12-19T23:11:26.116Z,5.35
2022-12-19T23:13:52.655Z,5.35
2022-12-19T23:16:19.322Z,5.42
2022-12-19T23:18:46.171Z,5.46
2022-12-19T23:21:18.142Z,5.46
2022-12-19T23:23:46.461Z,5.47
2022-12-19T23:26:21.930Z,5.52
2022-12-19T23:28:56.829Z,5.54
2022-12-19T23:31:24.042Z,5.43
2022-12-19T23:33:51.070Z,5.35
2022-12-19T23:36:32.382Z,5.51
2022-12-19T23:39:04.379Z,5.55
2022-12-19T23:41:31.070Z,5.44
2022-12-19T23:43:57.662Z,5.27
2022-12-19T23:46:27.295Z,5.20
2022-12-19T23:48:53.964Z,5.39
2022-12-19T23:51:22.985Z,5.38
2022-12-19T23:53:49.961Z,5.22
2022-12-19T23:56:28.161Z,5.20
2022-12-19T23:58:55.951Z,5.34
